Time;durP1;ratioP1;P1;durP2;ratioP2;P2;SDS_P1;SDS_P2;PMS_P1;PMS_P2;Temp;Humidity;BMP_temperature;BMP_pressure;BME280_temperature;BME280_humidity;BME280_pressure;Samples;Min_cycle;Max_cycle;Signal;HPM_P1;HPM_P2
2024/03/21 00:02:05;;;;;;;26.55;13.27;;;18.40;99.90;;;;;;10430104;28;20057;-54
2024/03/21 00:07:09;;;;;;;21.75;11.52;;;18.30;99.90;;;;;;10432021;28;20641;-52
2024/03/21 00:12:11;;;;;;;22.10;12.23;;;17.80;99.90;;;;;;10430344;28;20064;-53
2024/03/21 00:17:13;;;;;;;28.75;14.98;;;17.20;99.90;;;;;;10430923;28;20981;-50
2024/03/21 00:22:17;;;;;;;27.48;11.50;;;17.10;99.90;;;;;;10431204;28;20893;-51
2024/03/21 00:27:19;;;;;;;26.45;12.43;;;15.80;99.90;;;;;;10425246;28;20143;-54
2024/03/21 00:32:20;;;;;;;27.27;11.97;;;15.70;99.90;;;;;;10428912;28;20045;-50
2024/03/21 00:37:24;;;;;;;28.10;13.07;;;15.20;99.90;;;;;;10429997;28;20084;-50
2024/03/21 00:42:26;;;;;;;25.92;14.65;;;15.10;99.90;;;;;;10421282;28;20294;-51
2024/03/21 00:47:28;;;;;;;33.67;15.60;;;14.80;99.90;;;;;;10425362;28;20053;-51
2024/03/21 00:52:31;;;;;;;31.13;16.77;;;14.50;99.90;;;;;;10427953;28;20977;-55
2024/03/21 00:57:33;;;;;;;34.97;15.27;;;15.10;99.90;;;;;;10421091;28;20745;-54
2024/03/21 01:02:35;;;;;;;31.43;14.37;;;14.50;99.90;;;;;;10428871;28;20049;-49
2024/03/21 01:07:39;;;;;;;27.20;14.43;;;14.60;99.90;;;;;;10422813;28;20063;-52
2024/03/21 01:12:41;;;;;;;21.20;10.38;;;14.40;99.90;;;;;;10425037;28;20159;-55
2024/03/21 01:17:43;;;;;;;16.03;8.73;;;15.00;99.90;;;;;;10426916;28;20178;-54
2024/03/21 01:22:46;;;;;;;15.88;8.93;;;15.50;99.90;;;;;;10431214;28;20939;-55
2024/03/21 01:27:48;;;;;;;15.57;7.32;;;14.90;99.90;;;;;;10424621;28;20052;-50
2024/03/21 01:32:50;;;;;;;12.03;5.83;;;15.90;99.90;;;;;;10424206;28;20053;-50
2024/03/21 01:37:56;;;;;;;14.63;5.67;;;15.40;99.90;;;;;;10422699;28;20587;-51
2024/03/21 01:42:58;;;;;;;14.48;5.55;;;15.90;99.90;;;;;;10420934;28;21812;-53
2024/03/21 01:48:02;;;;;;;7.60;5.25;;;16.50;99.90;;;;;;10430524;28;20057;-53
2024/03/21 01:53:06;;;;;;;11.73;5.40;;;16.50;99.90;;;;;;10428176;28;20052;-52
2024/03/21 01:58:08;;;;;;;14.43;5.00;;;16.50;99.90;;;;;;10425052;28;20047;-51
2024/03/21 02:03:10;;;;;;;10.85;3.15;;;16.00;99.90;;;;;;10421830;28;20041;-53
2024/03/21 02:08:14;;;;;;;4.40;2.40;;;16.80;99.90;;;;;;10424094;28;20126;-52
2024/03/21 02:13:15;;;;;;;8.25;2.88;;;16.40;99.90;;;;;;10432978;28;20048;-50
2024/03/21 02:18:18;;;;;;;5.53;0.93;;;15.50;99.90;;;;;;10432806;28;20061;-52
2024/03/21 02:23:21;;;;;;;6.18;1.90;;;13.90;99.90;;;;;;10443565;28;20059;-51
2024/03/21 02:28:23;;;;;;;3.72;1.23;;;14.40;99.90;;;;;;10437330;28;20055;-52
2024/03/21 02:33:25;;;;;;;3.50;1.00;;;14.70;99.90;;;;;;10443323;28;20417;-53
2024/03/21 02:38:28;;;;;;;3.83;1.23;;;16.40;99.90;;;;;;10441497;28;20484;-53
2024/03/21 02:43:30;;;;;;;4.80;1.02;;;16.70;99.90;;;;;;10430979;28;20127;-51
2024/03/21 02:48:33;;;;;;;6.03;1.13;;;16.40;99.90;;;;;;10427956;28;20250;-51
2024/03/21 02:53:37;;;;;;;5.88;0.90;;;16.80;99.90;;;;;;10434600;28;20056;-52
2024/03/21 02:58:39;;;;;;;3.30;0.77;;;16.80;99.90;;;;;;10436658;28;20067;-53
2024/03/21 03:03:41;;;;;;;7.13;1.17;;;16.40;99.90;;;;;;10439835;28;20048;-51
2024/03/21 03:08:44;;;;;;;1.30;0.93;;;15.00;99.90;;;;;;10437149;28;20102;-55
2024/03/21 03:13:46;;;;;;;4.10;1.15;;;14.80;99.90;;;;;;10442044;28;20076;-51
2024/03/21 03:18:48;;;;;;;9.77;1.53;;;15.10;99.90;;;;;;10439653;28;20315;-54
2024/03/21 03:23:52;;;;;;;4.30;1.40;;;15.10;99.90;;;;;;10442454;28;20963;-55
2024/03/21 03:28:54;;;;;;;4.13;0.98;;;14.60;99.90;;;;;;10433584;28;20086;-52
2024/03/21 03:39:16;;;;;;;7.60;1.30;;;15.20;99.90;;;;;;10438382;28;20421;-51
2024/03/21 03:44:20;;;;;;;5.30;1.33;;;15.00;99.90;;;;;;10444968;28;20051;-56
2024/03/21 03:49:22;;;;;;;6.50;2.00;;;15.20;99.90;;;;;;10431202;28;20052;-51
2024/03/21 03:54:25;;;;;;;3.00;1.20;;;15.40;99.90;;;;;;10430651;28;20052;-49
2024/03/21 03:59:27;;;;;;;4.45;1.25;;;16.00;99.90;;;;;;10421184;28;20820;-52
2024/03/21 04:04:29;;;;;;;2.40;1.03;;;15.20;99.90;;;;;;10424606;28;20049;-53
2024/03/21 04:09:32;;;;;;;3.53;1.70;;;15.80;99.90;;;;;;10420282;28;20101;-52
2024/03/21 04:14:34;;;;;;;3.80;1.80;;;16.00;99.90;;;;;;10426655;28;20491;-52
2024/03/21 04:19:36;;;;;;;3.67;1.27;;;15.90;99.90;;;;;;10419944;28;20172;-54
2024/03/21 04:24:41;;;;;;;5.30;2.00;;;16.60;99.90;;;;;;10423791;28;20071;-51
2024/03/21 04:29:43;;;;;;;4.35;0.77;;;16.60;99.90;;;;;;10424204;28;20052;-52
2024/03/21 04:34:45;;;;;;;1.38;0.70;;;16.80;99.90;;;;;;10421160;28;20094;-52
2024/03/21 04:39:49;;;;;;;3.25;0.80;;;16.10;99.90;;;;;;10424907;28;20132;-53
2024/03/21 04:44:51;;;;;;;3.58;1.08;;;16.60;99.90;;;;;;10428811;28;20055;-52
2024/03/21 04:49:54;;;;;;;2.73;0.93;;;16.20;99.90;;;;;;10424225;28;20139;-49
2024/03/21 04:54:58;;;;;;;4.53;0.90;;;16.40;99.90;;;;;;10426685;28;20049;-50
2024/03/21 05:00:00;;;;;;;5.93;1.08;;;16.30;99.90;;;;;;10430562;28;20500;-52
2024/03/21 05:05:02;;;;;;;3.17;0.80;;;16.00;99.90;;;;;;10417222;28;20048;-51
2024/03/21 05:10:06;;;;;;;5.28;0.85;;;16.10;99.90;;;;;;10421080;28;20079;-51
2024/03/21 05:15:09;;;;;;;12.13;0.90;;;15.90;99.90;;;;;;10413651;28;21276;-53
2024/03/21 05:20:12;;;;;;;;;;;15.40;99.90;;;;;;10418309;28;20114;-57
2024/03/21 05:25:15;;;;;;;;;;;15.60;99.90;;;;;;10417337;28;19924;-50
2024/03/21 05:30:17;;;;;;;3.72;0.73;;;15.90;99.90;;;;;;10421739;28;20696;-51
2024/03/21 05:35:19;;;;;;;4.45;0.85;;;16.00;99.90;;;;;;10421242;28;20479;-53
2024/03/21 05:40:22;;;;;;;1.97;0.73;;;16.10;99.90;;;;;;10420397;28;20923;-53
2024/03/21 05:45:24;;;;;;;6.30;0.95;;;15.80;99.90;;;;;;10427811;28;20475;-53
2024/03/21 05:50:26;;;;;;;8.57;0.90;;;16.10;99.90;;;;;;10418438;28;20045;-49
2024/03/21 05:55:30;;;;;;;3.38;0.80;;;16.50;99.90;;;;;;10420878;28;20164;-54
2024/03/21 06:00:32;;;;;;;3.80;0.90;;;16.80;99.90;;;;;;10426213;28;20091;-52
2024/03/21 06:05:34;;;;;;;4.82;0.68;;;16.20;99.90;;;;;;10428197;28;20206;-54
2024/03/21 06:10:37;;;;;;;7.53;0.88;;;16.80;99.90;;;;;;10422011;28;20049;-51
2024/03/21 06:15:39;;;;;;;6.60;1.30;;;16.60;99.90;;;;;;10427680;28;20885;-53
2024/03/21 06:20:41;;;;;;;3.93;0.70;;;16.90;99.90;;;;;;10432850;28;20290;-50
2024/03/21 06:25:44;;;;;;;2.90;0.60;;;17.10;99.90;;;;;;10430713;28;20167;-55
2024/03/21 06:30:46;;;;;;;8.82;0.82;;;17.30;99.90;;;;;;10424900;28;20155;-53
2024/03/21 06:35:48;;;;;;;3.85;1.20;;;17.20;99.90;;;;;;10424333;28;20140;-50
2024/03/21 06:40:51;;;;;;;5.63;1.10;;;16.80;99.90;;;;;;10435518;28;20057;-53
2024/03/21 06:45:57;;;;;;;7.40;1.45;;;17.10;99.90;;;;;;10432512;28;20045;-53
2024/03/21 06:51:00;;;;;;;10.10;1.27;;;15.90;99.90;;;;;;10428775;28;20582;-51
2024/03/21 06:56:04;;;;;;;3.22;1.10;;;16.50;99.90;;;;;;10428105;28;20680;-53
2024/03/21 07:01:06;;;;;;;3.33;0.63;;;17.20;99.90;;;;;;10429435;28;20500;-54
2024/03/21 07:06:08;;;;;;;3.43;0.93;;;16.20;99.90;;;;;;10424349;28;20218;-50
2024/03/21 07:11:11;;;;;;;2.63;0.50;;;16.10;99.90;;;;;;10427799;28;20061;-51
2024/03/21 07:16:17;;;;;;;3.45;0.90;;;16.60;99.90;;;;;;10427884;28;20076;-51
2024/03/21 07:21:19;;;;;;;6.05;1.08;;;17.00;99.90;;;;;;10424937;28;20045;-55
2024/03/21 07:26:22;;;;;;;6.30;1.17;;;16.70;99.90;;;;;;10425700;28;20493;-52
2024/03/21 07:31:24;;;;;;;4.50;0.80;;;16.70;99.90;;;;;;10420334;28;20064;-55
2024/03/21 07:36:26;;;;;;;6.13;0.88;;;16.60;99.90;;;;;;10419211;28;20045;-54
2024/03/21 07:41:30;;;;;;;6.57;0.77;;;16.50;99.90;;;;;;10423869;28;20721;-53
2024/03/21 07:46:34;;;;;;;5.65;0.93;;;17.10;99.90;;;;;;10423532;28;20041;-54
2024/03/21 07:51:35;;;;;;;2.53;0.45;;;17.40;99.90;;;;;;10421100;28;20048;-50
2024/03/21 07:56:39;;;;;;;2.30;0.80;;;17.00;99.90;;;;;;10420351;28;20473;-50
2024/03/21 08:01:41;;;;;;;2.70;0.77;;;17.40;99.90;;;;;;10431273;28;20219;-52
2024/03/21 08:06:43;;;;;;;4.00;0.70;;;17.90;99.90;;;;;;10428254;28;20066;-54
2024/03/21 08:11:46;;;;;;;1.83;0.50;;;17.80;99.90;;;;;;10420609;28;20176;-53
2024/03/21 08:16:48;;;;;;;4.10;0.63;;;16.50;99.90;;;;;;10420888;28;20072;-51
2024/03/21 08:21:50;;;;;;;3.13;1.52;;;16.50;99.90;;;;;;10418715;28;20053;-53
2024/03/21 08:26:54;;;;;;;4.15;0.80;;;17.50;99.90;;;;;;10421574;28;20049;-51
2024/03/21 08:31:56;;;;;;;4.70;0.30;;;18.10;99.90;;;;;;10411331;28;20117;-54
2024/03/21 08:36:58;;;;;;;3.70;0.88;;;18.10;99.90;;;;;;10418075;28;20060;-53
2024/03/21 08:42:02;;;;;;;2.70;0.82;;;18.40;99.90;;;;;;10420608;28;20235;-49
2024/03/21 08:47:04;;;;;;;8.00;1.75;;;18.10;99.90;;;;;;10420518;28;20056;-54
2024/03/21 08:52:06;;;;;;;2.58;0.55;;;18.40;99.90;;;;;;10422298;28;20113;-54
2024/03/21 08:57:10;;;;;;;6.82;0.77;;;18.20;99.90;;;;;;10416330;28;20080;-54
2024/03/21 09:02:13;;;;;;;3.65;1.10;;;14.10;99.90;;;;;;10415538;28;20578;-53
2024/03/21 09:07:15;;;;;;;3.80;1.05;;;16.90;99.90;;;;;;10400916;28;21213;-50
2024/03/21 09:12:19;;;;;;;2.67;0.55;;;16.80;99.90;;;;;;10422285;28;20468;-54
2024/03/21 09:17:21;;;;;;;7.10;1.40;;;17.20;99.90;;;;;;10414265;28;20334;-51
2024/03/21 09:22:23;;;;;;;4.05;0.70;;;17.90;99.90;;;;;;10420576;28;20059;-54
2024/03/21 09:27:26;;;;;;;4.45;0.52;;;16.80;99.90;;;;;;10432895;28;20068;-50
2024/03/21 09:32:28;;;;;;;5.82;0.75;;;17.20;99.90;;;;;;10427565;28;20080;-48
2024/03/21 09:37:30;;;;;;;4.57;0.57;;;17.30;99.90;;;;;;10431184;28;20059;-53
2024/03/21 09:42:33;;;;;;;3.47;0.77;;;17.40;99.90;;;;;;10429853;28;20127;-52
2024/03/21 09:47:36;;;;;;;4.72;0.77;;;16.70;99.90;;;;;;10429501;28;20474;-50
2024/03/21 09:52:38;;;;;;;3.53;0.77;;;16.60;99.90;;;;;;10424036;28;20404;-49
2024/03/21 09:57:42;;;;;;;1.73;0.63;;;15.50;99.90;;;;;;10426235;28;20172;-55
2024/03/21 10:02:45;;;;;;;6.32;1.25;;;16.80;99.90;;;;;;10424187;28;20528;-51
2024/03/21 10:07:48;;;;;;;4.03;0.73;;;16.80;99.90;;;;;;10430687;28;20896;-50
2024/03/21 10:12:52;;;;;;;0.65;0.40;;;15.70;99.90;;;;;;10430428;28;20546;-50
2024/03/21 10:17:54;;;;;;;2.50;0.60;;;16.10;99.90;;;;;;10428590;28;20516;-49
2024/03/21 10:22:58;;;;;;;1.40;0.40;;;16.00;99.90;;;;;;10427754;28;20140;-49
2024/03/21 10:28:03;;;;;;;1.25;0.47;;;17.20;99.90;;;;;;10429547;28;20048;-53
2024/03/21 10:33:06;;;;;;;1.27;0.40;;;17.50;99.90;;;;;;10419633;28;20130;-51
2024/03/21 10:38:12;;;;;;;3.17;0.70;;;17.30;99.90;;;;;;10430729;28;20044;-52
2024/03/21 10:43:18;;;;;;;1.95;0.80;;;17.70;99.90;;;;;;10429869;28;20811;-52
2024/03/21 10:48:29;;;;;;;3.60;0.77;;;18.10;99.90;;;;;;10429091;28;21164;-52
2024/03/21 10:53:31;;;;;;;5.65;0.80;;;17.60;99.90;;;;;;10430291;28;20056;-55
2024/03/21 10:58:41;;;;;;;3.78;1.27;;;18.40;99.90;;;;;;10425211;28;20115;-51
2024/03/21 11:03:48;;;;;;;2.05;0.55;;;18.50;99.90;;;;;;10429181;28;20052;-50
2024/03/21 11:08:54;;;;;;;2.42;0.90;;;17.70;99.90;;;;;;10422042;28;20040;-52
2024/03/21 11:14:02;;;;;;;5.32;0.98;;;16.40;99.90;;;;;;10418174;28;20084;-49
2024/03/21 11:19:04;;;;;;;2.25;0.75;;;14.50;99.90;;;;;;10420387;28;20171;-54
2024/03/21 11:24:06;;;;;;;4.17;1.00;;;16.00;99.90;;;;;;10420598;28;20082;-50
2024/03/21 11:29:12;;;;;;;3.63;1.42;;;15.50;99.90;;;;;;10422604;28;20518;-54
2024/03/21 11:34:15;;;;;;;4.78;1.20;;;15.00;99.90;;;;;;10430804;28;20052;-51
2024/03/21 11:39:18;;;;;;;5.07;1.05;;;13.90;99.90;;;;;;10422169;28;20883;-51
2024/03/21 11:44:21;;;;;;;6.85;1.10;;;15.50;99.90;;;;;;10426496;28;20214;-51
2024/03/21 11:49:23;;;;;;;5.25;1.48;;;15.70;99.90;;;;;;10421999;28;20855;-52
2024/03/21 11:54:25;;;;;;;1.53;0.67;;;13.90;99.90;;;;;;10424124;28;20075;-50
2024/03/21 11:59:30;;;;;;;4.57;0.90;;;15.10;99.90;;;;;;10418595;28;20087;-52
2024/03/21 12:04:32;;;;;;;6.22;1.15;;;14.90;99.90;;;;;;10419942;28;21770;-50
2024/03/21 12:09:34;;;;;;;3.77;1.00;;;14.80;99.90;;;;;;10431122;28;20547;-51
2024/03/21 12:14:38;;;;;;;9.70;1.23;;;15.60;99.90;;;;;;10428375;28;20053;-54
2024/03/21 12:19:40;;;;;;;2.20;0.85;;;13.50;99.90;;;;;;10430410;28;20098;-54
2024/03/21 12:24:42;;;;;;;4.75;1.02;;;14.10;99.90;;;;;;10423985;28;20055;-55
2024/03/21 12:29:47;;;;;;;5.00;1.60;;;13.50;99.90;;;;;;10427818;28;20472;-52
2024/03/21 12:34:49;;;;;;;2.15;0.90;;;14.80;99.90;;;;;;10425687;28;20124;-52
2024/03/21 12:39:50;;;;;;;3.33;0.80;;;14.10;99.90;;;;;;10429715;28;20064;-52
2024/03/21 12:44:54;;;;;;;1.93;1.07;;;15.10;99.90;;;;;;10425497;28;20190;-53
2024/03/21 12:49:56;;;;;;;6.60;0.93;;;14.20;99.90;;;;;;10428027;28;20053;-49
2024/03/21 12:54:58;;;;;;;4.87;1.43;;;13.60;99.90;;;;;;10428168;28;20080;-50
2024/03/21 13:00:01;;;;;;;3.50;1.20;;;15.70;99.90;;;;;;10425893;28;20110;-49
2024/03/21 13:05:04;;;;;;;4.57;0.80;;;15.90;99.90;;;;;;10422137;28;20043;-50
2024/03/21 13:10:07;;;;;;;2.20;1.20;;;15.00;99.90;;;;;;10420395;28;20212;-53
2024/03/21 13:15:12;;;;;;;2.38;1.30;;;14.50;99.90;;;;;;10421142;28;20045;-48
2024/03/21 13:20:14;;;;;;;2.20;1.08;;;14.20;99.90;;;;;;10417426;28;20053;-52
2024/03/21 13:25:19;;;;;;;7.43;1.10;;;13.90;99.90;;;;;;10425032;28;20044;-53
2024/03/21 13:30:23;;;;;;;3.75;1.02;;;14.30;99.90;;;;;;10426052;28;20475;-54
2024/03/21 13:35:25;;;;;;;8.23;1.40;;;14.30;99.90;;;;;;10421807;28;20140;-50
2024/03/21 13:40:28;;;;;;;1.47;0.90;;;13.50;99.90;;;;;;10419713;28;20449;-51
2024/03/21 13:45:31;;;;;;;4.93;1.83;;;13.60;99.90;;;;;;10422152;28;20053;-51
2024/03/21 13:50:34;;;;;;;9.13;3.88;;;13.20;99.90;;;;;;10419165;28;20098;-50
2024/03/21 13:55:36;;;;;;;3.70;1.80;;;13.40;99.90;;;;;;10417769;28;20045;-49
2024/03/21 14:00:42;;;;;;;3.43;1.43;;;13.10;99.90;;;;;;10424289;28;20049;-47
2024/03/21 14:05:45;;;;;;;5.55;1.83;;;14.50;99.90;;;;;;10416121;28;20052;-53
2024/03/21 14:10:46;;;;;;;9.85;1.75;;;13.60;99.90;;;;;;10417933;28;20057;-53
2024/03/21 14:15:50;;;;;;;5.80;1.10;;;13.20;99.90;;;;;;10419357;28;20079;-52
2024/03/21 14:20:56;;;;;;;2.28;0.90;;;13.70;99.90;;;;;;10426866;28;20084;-50
2024/03/21 14:25:58;;;;;;;2.33;0.60;;;14.70;99.90;;;;;;10426702;28;20183;-53
2024/03/21 14:31:03;;;;;;;4.17;0.90;;;15.30;99.90;;;;;;10432359;28;20550;-50
2024/03/21 14:36:06;;;;;;;3.22;1.23;;;14.30;99.90;;;;;;10426839;28;20516;-52
2024/03/21 14:41:08;;;;;;;5.95;1.00;;;14.10;99.90;;;;;;10426893;28;20894;-51
2024/03/21 14:46:11;;;;;;;2.43;0.80;;;14.10;99.90;;;;;;10430367;28;20164;-51
2024/03/21 14:51:13;;;;;;;4.95;0.95;;;13.20;99.90;;;;;;10426829;28;20955;-50
2024/03/21 14:56:16;;;;;;;7.90;1.63;;;14.00;99.90;;;;;;10425739;28;20135;-50
2024/03/21 15:01:20;;;;;;;4.40;1.75;;;13.10;99.90;;;;;;10426254;28;20068;-51
2024/03/21 15:06:22;;;;;;;6.35;1.55;;;13.10;99.90;;;;;;10431882;28;20056;-49
2024/03/21 15:11:24;;;;;;;5.85;1.83;;;13.50;99.90;;;;;;10427569;28;20057;-48
2024/03/21 15:16:27;;;;;;;5.40;1.80;;;13.60;99.90;;;;;;10429393;28;20491;-49
2024/03/21 15:21:29;;;;;;;2.58;1.10;;;13.90;99.90;;;;;;10429270;28;20140;-51
2024/03/21 15:26:31;;;;;;;3.65;1.55;;;15.30;99.90;;;;;;10425333;28;20059;-48
2024/03/21 15:31:35;;;;;;;4.77;1.50;;;14.80;99.90;;;;;;10431658;28;20462;-51
2024/03/21 15:36:37;;;;;;;1.88;1.30;;;14.50;99.90;;;;;;10426174;28;20049;-49
2024/03/21 15:41:39;;;;;;;8.37;1.20;;;15.30;99.90;;;;;;10428093;28;20081;-49
2024/03/21 15:46:42;;;;;;;7.10;1.57;;;16.10;99.90;;;;;;10428384;28;20056;-50
2024/03/21 15:51:44;;;;;;;7.10;2.15;;;16.10;99.90;;;;;;10426281;28;20964;-51
2024/03/21 15:56:46;;;;;;;4.00;2.17;;;15.20;99.90;;;;;;10420231;28;20076;-53
2024/03/21 16:01:50;;;;;;;3.88;1.52;;;15.10;99.90;;;;;;10429221;28;20052;-52
2024/03/21 16:06:52;;;;;;;6.80;1.38;;;16.00;99.90;;;;;;10419126;28;20172;-51
2024/03/21 16:11:54;;;;;;;5.63;1.30;;;15.00;99.90;;;;;;10424712;28;20132;-48
2024/03/21 16:16:58;;;;;;;4.95;1.67;;;15.60;99.90;;;;;;10419735;28;20530;-51
2024/03/21 16:21:59;;;;;;;4.03;1.75;;;15.40;99.90;;;;;;10425517;28;20058;-52
2024/03/21 16:27:01;;;;;;;4.40;3.00;;;15.50;99.90;;;;;;10423234;28;20076;-51
2024/03/21 16:32:05;;;;;;;6.27;2.90;;;14.40;99.90;;;;;;10427354;28;20167;-52
2024/03/21 16:37:07;;;;;;;3.08;1.58;;;15.10;99.90;;;;;;10425571;28;20088;-50
2024/03/21 16:42:09;;;;;;;6.47;1.87;;;15.80;99.90;;;;;;10420573;28;20872;-52
2024/03/21 16:47:12;;;;;;;3.90;1.40;;;14.70;99.90;;;;;;10422663;28;20167;-49
2024/03/21 16:52:14;;;;;;;4.93;1.20;;;14.80;99.90;;;;;;10426336;28;20713;-54
2024/03/21 16:57:16;;;;;;;3.50;1.40;;;16.50;99.90;;;;;;10424098;28;20079;-54
2024/03/21 17:02:21;;;;;;;2.13;1.40;;;15.50;99.90;;;;;;10420574;28;20093;-51
2024/03/21 17:07:22;;;;;;;5.13;2.35;;;14.70;99.90;;;;;;10416861;28;20152;-52
2024/03/21 17:12:25;;;;;;;4.37;2.20;;;15.30;99.90;;;;;;10416251;28;20061;-48
2024/03/21 17:17:28;;;;;;;6.88;3.00;;;16.00;99.90;;;;;;10413189;28;20055;-52
2024/03/21 17:22:30;;;;;;;10.68;3.22;;;15.20;99.90;;;;;;10410868;28;20164;-48
2024/03/21 17:27:33;;;;;;;9.97;3.20;;;15.70;99.90;;;;;;10418692;28;20085;-50
2024/03/21 17:32:36;;;;;;;6.78;4.07;;;17.50;99.90;;;;;;10414608;28;20045;-50
2024/03/21 17:37:38;;;;;;;8.85;4.90;;;17.50;99.90;;;;;;10425262;28;20680;-51
2024/03/21 17:42:40;;;;;;;14.85;4.95;;;16.20;99.90;;;;;;10427315;28;20144;-50
2024/03/21 17:47:44;;;;;;;12.37;4.17;;;15.50;99.90;;;;;;10419912;28;20053;-48
2024/03/21 17:52:46;;;;;;;13.68;5.38;;;15.30;99.90;;;;;;10424857;28;20173;-50
2024/03/21 17:57:48;;;;;;;9.93;5.17;;;14.00;99.90;;;;;;10427206;28;20148;-48
2024/03/21 18:02:51;;;;;;;10.40;5.40;;;13.40;99.90;;;;;;10432956;28;20060;-50
2024/03/21 18:07:53;;;;;;;12.43;5.22;;;13.90;99.90;;;;;;10432103;28;20048;-53
2024/03/21 18:12:55;;;;;;;13.10;5.90;;;14.30;99.90;;;;;;10437446;28;20123;-52
2024/03/21 18:17:58;;;;;;;9.00;5.30;;;13.70;99.90;;;;;;10431694;28;21037;-50
2024/03/21 18:23:00;;;;;;;11.10;6.40;;;13.50;99.90;;;;;;10432854;28;20060;-48
2024/03/21 18:28:04;;;;;;;10.32;6.20;;;12.80;99.90;;;;;;10430114;28;20195;-49
2024/03/21 18:33:08;;;;;;;9.63;5.82;;;12.90;99.90;;;;;;10432016;28;20055;-48
2024/03/21 18:38:10;;;;;;;13.00;6.63;;;13.90;99.90;;;;;;10429121;28;20053;-50
2024/03/21 18:43:13;;;;;;;12.33;5.63;;;13.90;99.90;;;;;;10427572;28;20042;-51
2024/03/21 18:48:17;;;;;;;9.93;5.97;;;14.10;99.90;;;;;;10426736;28;20463;-50
2024/03/21 18:53:19;;;;;;;10.82;5.45;;;14.90;99.90;;;;;;10429917;28;20049;-52
2024/03/21 18:58:21;;;;;;;9.40;5.23;;;15.50;99.90;;;;;;10425350;28;20049;-49
2024/03/21 19:03:25;;;;;;;8.45;5.43;;;15.90;99.90;;;;;;10424029;28;20560;-53
2024/03/21 19:08:27;;;;;;;10.32;6.63;;;15.40;99.90;;;;;;10435780;28;20048;-52
2024/03/21 19:13:29;;;;;;;11.63;8.13;;;15.10;99.90;;;;;;10436288;28;20543;-49
2024/03/21 19:18:32;;;;;;;13.50;10.30;;;15.20;99.90;;;;;;10434017;28;20938;-49
2024/03/21 19:23:34;;;;;;;19.33;10.85;;;14.60;99.90;;;;;;10438905;28;20974;-48
2024/03/21 19:28:38;;;;;;;20.67;9.87;;;14.00;99.90;;;;;;10442928;28;20049;-49
2024/03/21 19:33:41;;;;;;;21.05;10.43;;;14.30;99.90;;;;;;10439796;28;20068;-50
2024/03/21 19:38:43;;;;;;;22.38;10.30;;;13.90;99.90;;;;;;10441630;28;20060;-50
2024/03/21 19:43:45;;;;;;;21.42;12.75;;;13.70;99.90;;;;;;10446122;28;20060;-50
2024/03/21 19:48:50;;;;;;;20.48;13.13;;;13.70;99.90;;;;;;10427849;28;20174;-48
2024/03/21 19:53:52;;;;;;;23.65;12.40;;;13.00;99.90;;;;;;10427403;28;20083;-51
2024/03/21 19:58:54;;;;;;;23.53;13.97;;;13.40;99.90;;;;;;10424012;28;20412;-48
2024/03/21 20:04:01;;;;;;;32.30;14.70;;;13.20;99.90;;;;;;10427949;28;20059;-49
2024/03/21 20:09:03;;;;;;;32.42;15.57;;;13.00;99.90;;;;;;10424614;28;20056;-53
2024/03/21 20:14:06;;;;;;;35.55;15.48;;;13.30;99.90;;;;;;10426416;28;20175;-52
2024/03/21 20:19:09;;;;;;;40.90;21.35;;;13.00;99.90;;;;;;10421203;28;20865;-49
2024/03/21 20:24:11;;;;;;;46.13;20.45;;;12.50;99.90;;;;;;10423458;28;20500;-53
2024/03/21 20:29:14;;;;;;;35.38;20.08;;;12.50;99.90;;;;;;10425658;28;20857;-51
2024/03/21 20:34:18;;;;;;;41.72;20.77;;;13.00;99.90;;;;;;10425659;28;20061;-52
2024/03/21 20:39:20;;;;;;;48.30;22.13;;;12.60;99.90;;;;;;10423907;28;20057;-49
2024/03/21 20:44:23;;;;;;;47.92;21.50;;;13.20;99.90;;;;;;10425705;28;20098;-48
2024/03/21 20:49:26;;;;;;;49.50;26.33;;;13.10;99.90;;;;;;10428586;28;20369;-52
2024/03/21 20:54:28;;;;;;;45.80;22.15;;;12.80;99.90;;;;;;10426442;28;20519;-50
2024/03/21 20:59:30;;;;;;;47.00;22.92;;;12.90;99.90;;;;;;10421428;28;20133;-53
2024/03/21 21:04:34;;;;;;;52.28;25.65;;;12.50;99.90;;;;;;10424358;28;20053;-49
2024/03/21 21:09:35;;;;;;;60.58;28.13;;;12.50;99.90;;;;;;10423639;28;20049;-48
2024/03/21 21:14:37;;;;;;;47.00;21.50;;;12.10;99.90;;;;;;10427121;28;20084;-51
2024/03/21 21:19:41;;;;;;;61.77;31.87;;;12.90;99.90;;;;;;10419574;28;20072;-52
2024/03/21 21:24:43;;;;;;;48.35;22.08;;;12.50;99.90;;;;;;10422207;28;20745;-49
2024/03/21 21:29:45;;;;;;;30.08;14.02;;;12.90;99.90;;;;;;10419110;28;20075;-48
2024/03/21 21:34:51;;;;;;;45.63;20.77;;;13.40;99.90;;;;;;10424909;28;20130;-49
2024/03/21 21:39:53;;;;;;;57.22;24.92;;;13.20;99.90;;;;;;10428988;28;20122;-52
2024/03/21 21:44:55;;;;;;;55.38;25.60;;;12.30;99.90;;;;;;10426392;28;20040;-50
2024/03/21 21:49:58;;;;;;;55.40;23.63;;;12.10;99.90;;;;;;10425491;28;20508;-50
2024/03/21 21:55:00;;;;;;;63.08;27.52;;;12.10;99.90;;;;;;10427657;28;20056;-50
2024/03/21 22:00:02;;;;;;;63.58;21.35;;;12.40;99.90;;;;;;10431428;28;20487;-50
2024/03/21 22:05:05;;;;;;;73.20;33.38;;;12.50;99.90;;;;;;10425046;28;20052;-50
2024/03/21 22:10:08;;;;;;;63.83;29.00;;;11.70;99.90;;;;;;10426847;28;22597;-49
2024/03/21 22:15:11;;;;;;;76.50;29.60;;;12.30;99.90;;;;;;10428845;28;20040;-50
2024/03/21 22:20:14;;;;;;;81.43;31.98;;;12.30;99.90;;;;;;10426899;28;20744;-48
2024/03/21 22:25:16;;;;;;;57.28;23.80;;;11.80;99.90;;;;;;10428052;28;20211;-51
2024/03/21 22:30:18;;;;;;;76.45;29.33;;;12.40;99.90;;;;;;10428723;28;20172;-52
2024/03/21 22:35:21;;;;;;;72.35;29.40;;;11.90;99.90;;;;;;10433528;28;20186;-50
2024/03/21 22:40:23;;;;;;;58.28;24.27;;;11.60;99.90;;;;;;10438483;28;20128;-50
2024/03/21 22:45:25;;;;;;;66.70;26.58;;;12.30;99.90;;;;;;10440503;28;20052;-51
2024/03/21 22:50:29;;;;;;;80.43;32.45;;;12.10;99.90;;;;;;10439826;28;20088;-49
2024/03/21 22:55:31;;;;;;;75.60;29.23;;;12.00;99.90;;;;;;10428653;28;20643;-54
2024/03/21 23:00:33;;;;;;;68.57;29.47;;;12.10;99.90;;;;;;10443326;28;20048;-52
2024/03/21 23:05:40;;;;;;;71.88;27.00;;;12.40;99.90;;;;;;10436296;28;20041;-50
2024/03/21 23:10:42;;;;;;;81.32;33.03;;;12.10;99.90;;;;;;10435333;28;20468;-49
2024/03/21 23:15:44;;;;;;;77.27;32.50;;;11.50;99.90;;;;;;10432223;28;20063;-49
2024/03/21 23:20:48;;;;;;;78.10;26.17;;;11.70;99.90;;;;;;10431872;28;20214;-50
2024/03/21 23:25:50;;;;;;;68.97;26.45;;;11.50;99.90;;;;;;10437902;28;20853;-49
2024/03/21 23:30:52;;;;;;;54.72;22.27;;;11.70;99.90;;;;;;10438738;28;20053;-49
2024/03/21 23:35:55;;;;;;;76.13;30.63;;;11.40;99.90;;;;;;10433933;28;20937;-50
2024/03/21 23:40:59;;;;;;;62.92;21.02;;;11.20;99.90;;;;;;10433693;28;20087;-48
2024/03/21 23:46:01;;;;;;;87.18;28.92;;;11.70;99.90;;;;;;10436506;28;20073;-49
2024/03/21 23:51:05;;;;;;;69.45;26.27;;;11.40;99.90;;;;;;10435455;28;20130;-48
2024/03/21 23:56:07;;;;;;;72.55;25.73;;;11.40;99.90;;;;;;10434439;28;20098;-51
